Time;durP1;ratioP1;P1;durP2;ratioP2;P2;SDS_P1;SDS_P2;PMS_P1;PMS_P2;Temp;Humidity;BMP_temperature;BMP_pressure;BME280_temperature;BME280_humidity;BME280_pressure;Samples;Min_cycle;Max_cycle;Signal;HPM_P1;HPM_P2
2021/03/30 00:02:02;;;;;;;72.07;39.33;;;;;;;;;;771414;182;913307;-70
2021/03/30 00:04:28;;;;;;;127.37;80.90;;;;;;;;;;776494;179;919581;-62
2021/03/30 00:06:54;;;;;;;72.97;44.90;;;;;;;;;;778845;179;918713;-62
2021/03/30 00:09:19;;;;;;;68.50;38.20;;;;;;;;;;778330;179;918288;-64
2021/03/30 00:11:45;;;;;;;66.20;39.17;;;;;;;;;;778918;179;911503;-62
2021/03/30 00:14:11;;;;;;;55.25;34.25;;;;;;;;;;774215;179;923507;-61
2021/03/30 00:16:37;;;;;;;55.63;32.70;;;;;;;;;;777549;179;920268;-61
2021/03/30 00:19:03;;;;;;;48.13;29.07;;;;;;;;;;782039;179;919441;-62
2021/03/30 00:21:29;;;;;;;41.87;28.47;;;;;;;;;;779980;179;864148;-62
2021/03/30 00:23:55;;;;;;;38.20;25.27;;;;;;;;;;774160;179;919812;-61
2021/03/30 00:26:20;;;;;;;47.67;31.30;;;;;;;;;;782116;179;919498;-62
2021/03/30 00:28:46;;;;;;;41.23;25.20;;;;;;;;;;775116;179;920138;-62
2021/03/30 00:31:12;;;;;;;33.23;22.00;;;;;;;;;;778111;179;922270;-61
2021/03/30 00:33:38;;;;;;;39.97;26.70;;;;;;;;;;782957;178;919584;-61
2021/03/30 00:36:04;;;;;;;48.57;30.87;;;;;;;;;;772230;179;1023653;-62
2021/03/30 00:38:30;;;;;;;39.97;27.00;;;;;;;;;;776131;179;918910;-61
2021/03/30 00:40:56;;;;;;;38.33;25.40;;;;;;;;;;781192;179;919623;-61
2021/03/30 00:43:21;;;;;;;40.23;26.33;;;;;;;;;;777435;179;918721;-61
2021/03/30 00:45:47;;;;;;;37.77;22.50;;;;;;;;;;774481;179;919378;-63
2021/03/30 00:48:13;;;;;;;31.40;21.37;;;;;;;;;;777113;179;919821;-60
2021/03/30 00:50:39;;;;;;;35.67;21.67;;;;;;;;;;783953;176;919530;-61
2021/03/30 00:53:05;;;;;;;35.13;23.37;;;;;;;;;;775731;179;921789;-62
2021/03/30 00:55:31;;;;;;;42.33;23.70;;;;;;;;;;776194;179;919351;-61
2021/03/30 00:57:57;;;;;;;34.73;22.77;;;;;;;;;;782487;179;919308;-62
2021/03/30 01:00:24;;;;;;;38.30;26.03;;;;;;;;;;777712;179;920120;-61
2021/03/30 01:02:48;;;;;;;41.63;26.90;;;;;;;;;;777446;179;919809;-61
2021/03/30 01:05:14;;;;;;;46.50;28.47;;;;;;;;;;781115;179;931832;-60
2021/03/30 01:07:43;;;;;;;37.17;26.53;;;;;;;;;;777387;179;919171;-61
2021/03/30 01:10:15;;;;;;;43.23;29.00;;;;;;;;;;771407;179;918715;-62
2021/03/30 01:12:44;;;;;;;44.30;26.70;;;;;;;;;;776326;179;919714;-64
2021/03/30 01:15:09;;;;;;;48.60;26.40;;;;;;;;;;782111;179;919216;-61
2021/03/30 01:17:36;;;;;;;39.27;26.57;;;;;;;;;;780147;179;921879;-61
2021/03/30 01:20:18;;;;;;;43.47;28.03;;;;;;;;;;776678;179;920007;-61
2021/03/30 01:23:04;;;;;;;51.30;30.40;;;;;;;;;;771696;179;920326;-62
2021/03/30 01:25:30;;;;;;;43.50;28.95;;;;;;;;;;769509;179;1135007;-61
2021/03/30 01:28:00;;;;;;;46.80;32.30;;;;;;;;;;776251;179;919198;-63
2021/03/30 01:30:26;;;;;;;55.20;32.00;;;;;;;;;;781846;179;921021;-62
2021/03/30 01:32:54;;;;;;;51.40;34.07;;;;;;;;;;773000;179;921879;-61
2021/03/30 01:35:20;;;;;;;51.10;33.25;;;;;;;;;;776824;179;919970;-61
2021/03/30 01:37:45;;;;;;;46.30;30.03;;;;;;;;;;779687;179;919359;-61
2021/03/30 01:40:12;;;;;;;41.90;29.27;;;;;;;;;;778198;179;915351;-61
2021/03/30 01:42:38;;;;;;;47.15;30.60;;;;;;;;;;774339;179;916279;-60
2021/03/30 01:45:04;;;;;;;46.53;32.03;;;;;;;;;;782548;178;921837;-61
2021/03/30 01:47:30;;;;;;;48.17;31.30;;;;;;;;;;777465;179;928593;-61
2021/03/30 01:49:56;;;;;;;44.00;29.83;;;;;;;;;;780283;179;920442;-62
2021/03/30 01:52:22;;;;;;;46.37;31.33;;;;;;;;;;776512;179;920034;-61
2021/03/30 01:54:47;;;;;;;40.13;28.47;;;;;;;;;;785646;179;919640;-61
2021/03/30 01:57:13;;;;;;;47.53;31.87;;;;;;;;;;776591;179;919418;-61
2021/03/30 01:59:39;;;;;;;43.00;28.80;;;;;;;;;;777368;179;919467;-61
2021/03/30 02:02:12;;;;;;;40.78;26.23;;;;;;;;;;782514;179;918616;-62
2021/03/30 02:04:38;;;;;;;45.07;27.90;;;;;;;;;;777462;179;919278;-62
2021/03/30 02:07:04;;;;;;;38.97;27.97;;;;;;;;;;780147;179;918762;-61
2021/03/30 02:09:34;;;;;;;53.83;28.80;;;;;;;;;;778942;179;628019;-60
2021/03/30 02:12:08;;;;;;;48.53;31.13;;;;;;;;;;786044;179;920297;-62
2021/03/30 02:14:33;;;;;;;42.57;27.93;;;;;;;;;;779826;179;918728;-63
2021/03/30 02:16:59;;;;;;;49.07;27.30;;;;;;;;;;784055;179;637941;-63
2021/03/30 02:19:27;;;;;;;35.47;26.47;;;;;;;;;;780298;179;627700;-61
2021/03/30 02:21:53;;;;;;;42.27;27.90;;;;;;;;;;788647;176;919300;-61
2021/03/30 02:24:19;;;;;;;43.70;29.95;;;;;;;;;;775171;179;919230;-62
2021/03/30 02:26:45;;;;;;;35.40;25.60;;;;;;;;;;776374;179;919943;-62
2021/03/30 02:29:11;;;;;;;43.03;25.60;;;;;;;;;;779148;179;919282;-61
2021/03/30 02:31:36;;;;;;;33.97;25.10;;;;;;;;;;776430;179;919505;-61
2021/03/30 02:34:02;;;;;;;45.47;28.03;;;;;;;;;;775972;179;919171;-62
2021/03/30 02:36:28;;;;;;;41.13;27.47;;;;;;;;;;782957;179;919992;-61
2021/03/30 02:38:54;;;;;;;36.77;24.13;;;;;;;;;;776979;179;919394;-62
2021/03/30 02:41:20;;;;;;;38.50;26.87;;;;;;;;;;778070;179;920004;-62
2021/03/30 02:43:46;;;;;;;38.92;26.05;;;;;;;;;;780403;179;852799;-66
2021/03/30 02:46:12;;;;;;;54.77;28.47;;;;;;;;;;784323;176;920168;-62
2021/03/30 02:48:38;;;;;;;39.15;27.20;;;;;;;;;;775713;179;920296;-61
2021/03/30 02:51:05;;;;;;;29.90;23.87;;;;;;;;;;775766;179;919452;-61
2021/03/30 02:53:31;;;;;;;41.17;24.97;;;;;;;;;;781684;179;942523;-61
2021/03/30 02:55:57;;;;;;;39.37;27.70;;;;;;;;;;775022;179;921333;-61
2021/03/30 02:58:22;;;;;;;40.90;27.17;;;;;;;;;;779934;178;923671;-61
2021/03/30 03:00:48;;;;;;;37.20;27.60;;;;;;;;;;780528;179;919168;-62
2021/03/30 03:03:14;;;;;;;39.47;27.57;;;;;;;;;;781519;179;919919;-61
2021/03/30 03:05:40;;;;;;;41.65;26.85;;;;;;;;;;767121;179;2677059;-60
2021/03/30 03:08:06;;;;;;;40.10;26.23;;;;;;;;;;781063;179;914790;-61
2021/03/30 03:10:32;;;;;;;39.22;24.92;;;;;;;;;;774406;179;916118;-61
2021/03/30 03:12:57;;;;;;;38.47;26.70;;;;;;;;;;777265;179;916667;-61
2021/03/30 03:15:24;;;;;;;38.53;25.33;;;;;;;;;;774589;179;1018692;-60
2021/03/30 03:17:50;;;;;;;36.70;24.60;;;;;;;;;;781919;179;918690;-60
2021/03/30 03:20:16;;;;;;;34.83;25.27;;;;;;;;;;776239;179;920174;-61
2021/03/30 03:22:41;;;;;;;36.87;25.90;;;;;;;;;;778452;179;920425;-60
2021/03/30 03:25:08;;;;;;;33.27;21.43;;;;;;;;;;783787;179;919817;-60
2021/03/30 03:27:34;;;;;;;40.38;25.00;;;;;;;;;;776204;179;1257617;-60
2021/03/30 03:29:59;;;;;;;30.70;21.27;;;;;;;;;;778890;179;920742;-61
2021/03/30 03:32:25;;;;;;;28.40;21.57;;;;;;;;;;778128;179;921436;-61
2021/03/30 03:34:51;;;;;;;33.20;22.90;;;;;;;;;;775373;179;920393;-61
2021/03/30 03:37:17;;;;;;;37.60;22.90;;;;;;;;;;774699;179;918755;-60
2021/03/30 03:39:43;;;;;;;33.17;21.27;;;;;;;;;;780511;179;918793;-60
2021/03/30 03:42:09;;;;;;;30.70;21.13;;;;;;;;;;774801;179;919006;-61
2021/03/30 03:44:34;;;;;;;35.07;21.77;;;;;;;;;;775609;179;918335;-60
2021/03/30 03:47:00;;;;;;;37.60;22.70;;;;;;;;;;774580;179;917130;-61
2021/03/30 03:49:27;;;;;;;37.67;23.20;;;;;;;;;;785303;176;918418;-61
2021/03/30 03:51:52;;;;;;;31.77;21.60;;;;;;;;;;773655;179;1143133;-61
2021/03/30 03:54:18;;;;;;;34.33;22.20;;;;;;;;;;775532;179;917535;-61
2021/03/30 03:56:44;;;;;;;39.30;22.10;;;;;;;;;;779666;179;916689;-60
2021/03/30 03:59:10;;;;;;;38.80;24.80;;;;;;;;;;774379;179;1068533;-61
2021/03/30 04:01:39;;;;;;;30.35;23.17;;;;;;;;;;777294;179;919456;-60
2021/03/30 04:04:05;;;;;;;31.47;22.70;;;;;;;;;;780609;179;920006;-61
2021/03/30 04:06:31;;;;;;;38.13;24.80;;;;;;;;;;778765;179;922258;-61
2021/03/30 04:08:56;;;;;;;43.17;27.60;;;;;;;;;;777588;177;944413;-60
2021/03/30 04:11:22;;;;;;;44.63;26.33;;;;;;;;;;784659;179;918574;-61
2021/03/30 04:13:48;;;;;;;42.43;26.97;;;;;;;;;;775400;179;919587;-60
2021/03/30 04:16:14;;;;;;;42.93;28.10;;;;;;;;;;776096;179;919853;-61
2021/03/30 04:18:40;;;;;;;56.60;29.87;;;;;;;;;;775748;179;925249;-60
2021/03/30 04:21:06;;;;;;;53.27;28.27;;;;;;;;;;783266;179;919729;-60
2021/03/30 04:23:33;;;;;;;39.10;26.73;;;;;;;;;;775854;179;919365;-61
2021/03/30 04:25:57;;;;;;;45.30;29.57;;;;;;;;;;778901;179;919223;-60
2021/03/30 04:28:23;;;;;;;35.47;26.63;;;;;;;;;;779862;179;919343;-61
2021/03/30 04:30:49;;;;;;;42.40;29.70;;;;;;;;;;778145;179;919593;-60
2021/03/30 04:33:15;;;;;;;43.97;29.27;;;;;;;;;;775128;179;943476;-61
2021/03/30 04:35:41;;;;;;;46.43;28.93;;;;;;;;;;781989;179;919172;-61
2021/03/30 04:38:08;;;;;;;43.80;29.10;;;;;;;;;;771464;179;1738557;-62
2021/03/30 04:40:34;;;;;;;46.13;29.47;;;;;;;;;;749885;186;920004;-61
2021/03/30 04:43:00;;;;;;;44.05;27.73;;;;;;;;;;773767;181;1220477;-60
2021/03/30 04:45:26;;;;;;;43.23;27.20;;;;;;;;;;773703;181;983947;-60
2021/03/30 04:47:52;;;;;;;43.70;29.30;;;;;;;;;;768395;181;919186;-62
2021/03/30 04:50:18;;;;;;;37.20;25.33;;;;;;;;;;774254;179;921804;-60
2021/03/30 04:52:44;;;;;;;47.50;27.37;;;;;;;;;;785097;179;919074;-61
2021/03/30 04:55:10;;;;;;;44.00;29.02;;;;;;;;;;779738;179;918190;-60
2021/03/30 04:57:36;;;;;;;36.97;26.07;;;;;;;;;;783195;179;871452;-61
2021/03/30 05:00:02;;;;;;;47.77;26.80;;;;;;;;;;782101;179;631606;-61
2021/03/30 05:02:27;;;;;;;48.60;27.40;;;;;;;;;;780378;179;639482;-61
2021/03/30 05:04:54;;;;;;;43.57;28.60;;;;;;;;;;778395;179;642930;-61
2021/03/30 05:07:19;;;;;;;38.63;28.90;;;;;;;;;;785260;179;626906;-63
2021/03/30 05:09:45;;;;;;;46.50;29.07;;;;;;;;;;778883;179;626298;-60
2021/03/30 05:12:11;;;;;;;44.17;29.27;;;;;;;;;;781529;179;631053;-61
2021/03/30 05:14:39;;;;;;;41.87;29.97;;;;;;;;;;777848;179;800966;-61
2021/03/30 05:17:05;;;;;;;43.20;28.73;;;;;;;;;;789562;176;625939;-61
2021/03/30 05:19:31;;;;;;;45.20;30.00;;;;;;;;;;782472;178;620552;-61
2021/03/30 05:21:57;;;;;;;50.03;32.83;;;;;;;;;;779003;179;619410;-61
2021/03/30 05:24:23;;;;;;;59.53;32.47;;;;;;;;;;787242;179;629858;-61
2021/03/30 05:26:49;;;;;;;46.47;33.83;;;;;;;;;;779119;179;623557;-63
2021/03/30 05:29:15;;;;;;;50.13;31.17;;;;;;;;;;782080;178;636898;-61
2021/03/30 05:31:40;;;;;;;51.43;31.80;;;;;;;;;;784406;179;618399;-61
2021/03/30 05:34:06;;;;;;;49.23;32.57;;;;;;;;;;786228;179;620949;-61
2021/03/30 05:36:32;;;;;;;62.95;35.83;;;;;;;;;;778576;179;1152038;-61
2021/03/30 05:38:58;;;;;;;65.67;36.20;;;;;;;;;;782943;179;619405;-60
2021/03/30 05:41:24;;;;;;;53.53;33.00;;;;;;;;;;790339;176;623789;-61
2021/03/30 05:43:50;;;;;;;49.80;32.37;;;;;;;;;;781557;179;648742;-62
2021/03/30 05:46:15;;;;;;;54.03;33.27;;;;;;;;;;778503;179;688244;-62
2021/03/30 05:48:44;;;;;;;53.57;35.10;;;;;;;;;;786569;179;628140;-60
2021/03/30 05:51:07;;;;;;;55.10;35.83;;;;;;;;;;779846;179;623517;-61
2021/03/30 05:53:33;;;;;;;59.00;34.80;;;;;;;;;;780754;179;640631;-61
2021/03/30 05:56:00;;;;;;;60.20;37.70;;;;;;;;;;786988;179;618621;-61
2021/03/30 05:58:25;;;;;;;66.10;38.27;;;;;;;;;;780293;179;624125;-65
2021/03/30 06:00:51;;;;;;;60.15;40.22;;;;;;;;;;782110;179;651320;-61
2021/03/30 06:03:22;;;;;;;72.57;39.67;;;;;;;;;;781794;179;765433;-61
2021/03/30 06:05:48;;;;;;;72.93;39.37;;;;;;;;;;788329;179;626961;-61
2021/03/30 06:08:14;;;;;;;61.20;39.97;;;;;;;;;;778766;179;629962;-61
2021/03/30 06:10:39;;;;;;;55.33;38.47;;;;;;;;;;781637;179;639421;-61
2021/03/30 06:13:05;;;;;;;65.63;39.87;;;;;;;;;;781755;179;623262;-63
2021/03/30 06:15:31;;;;;;;59.77;36.27;;;;;;;;;;780231;179;629089;-62
2021/03/30 06:17:57;;;;;;;68.37;39.87;;;;;;;;;;778224;179;637527;-60
2021/03/30 06:20:30;;;;;;;61.23;42.47;;;;;;;;;;786587;179;630074;-62
2021/03/30 06:22:55;;;;;;;71.67;44.20;;;;;;;;;;779860;179;745639;-61
2021/03/30 06:25:38;;;;;;;71.27;42.30;;;;;;;;;;780362;179;626693;-65
2021/03/30 06:28:17;;;;;;;80.03;44.97;;;;;;;;;;775929;179;668809;-61
2021/03/30 06:31:01;;;;;;;68.23;43.83;;;;;;;;;;782217;177;627113;-62
2021/03/30 06:33:26;;;;;;;87.10;44.90;;;;;;;;;;780120;179;626213;-61
2021/03/30 06:35:52;;;;;;;72.47;43.83;;;;;;;;;;781974;179;624565;-61
2021/03/30 06:38:18;;;;;;;87.97;44.27;;;;;;;;;;780899;179;633320;-61
2021/03/30 06:40:46;;;;;;;63.60;41.03;;;;;;;;;;781863;179;622759;-62
2021/03/30 06:44:24;;;;;;;64.68;43.25;;;;;;;;;;770704;179;2204591;-61
2021/03/30 06:45:42;;;;;;;69.30;37.97;;;;;;;;;;783325;179;649566;-61
2021/03/30 06:48:12;;;;;;;58.37;39.37;;;;;;;;;;783764;179;633711;-61
2021/03/30 06:50:38;;;;;;;65.60;40.03;;;;;;;;;;783249;179;630671;-61
2021/03/30 06:53:09;;;;;;;68.43;40.90;;;;;;;;;;782606;179;654663;-61
2021/03/30 06:55:35;;;;;;;70.43;42.27;;;;;;;;;;782971;179;620010;-61
2021/03/30 06:58:01;;;;;;;54.20;35.10;;;;;;;;;;781158;179;641795;-62
2021/03/30 07:00:30;;;;;;;50.20;35.03;;;;;;;;;;779613;179;635345;-61
2021/03/30 07:02:56;;;;;;;50.63;36.83;;;;;;;;;;781307;179;654589;-61
2021/03/30 07:05:22;;;;;;;44.43;32.33;;;;;;;;;;785721;176;654662;-63
2021/03/30 07:07:49;;;;;;;51.37;31.80;;;;;;;;;;782617;179;615724;-61
2021/03/30 07:10:15;;;;;;;39.10;28.70;;;;;;;;;;778506;179;634409;-62
2021/03/30 07:12:40;;;;;;;46.43;27.97;;;;;;;;;;786604;179;628853;-63
2021/03/30 07:15:07;;;;;;;39.13;25.77;;;;;;;;;;780805;179;615832;-62
2021/03/30 07:17:33;;;;;;;38.93;27.83;;;;;;;;;;782151;179;623469;-62
2021/03/30 07:19:59;;;;;;;48.10;28.63;;;;;;;;;;780983;179;640847;-62
2021/03/30 07:22:24;;;;;;;43.20;27.20;;;;;;;;;;781542;179;641355;-64
2021/03/30 07:24:53;;;;;;;43.13;26.20;;;;;;;;;;783974;179;636423;-62
2021/03/30 07:27:19;;;;;;;40.63;25.83;;;;;;;;;;783452;179;636635;-62
2021/03/30 07:29:49;;;;;;;33.17;24.73;;;;;;;;;;784641;179;632806;-62
2021/03/30 07:32:21;;;;;;;40.30;26.50;;;;;;;;;;781601;179;633038;-62
2021/03/30 07:35:04;;;;;;;39.40;23.70;;;;;;;;;;782003;179;637115;-61
2021/03/30 07:37:30;;;;;;;36.13;24.30;;;;;;;;;;779097;179;633970;-62
2021/03/30 07:39:56;;;;;;;39.23;23.53;;;;;;;;;;781696;179;632521;-62
2021/03/30 07:42:22;;;;;;;39.87;27.13;;;;;;;;;;788386;176;628917;-62
2021/03/30 07:44:48;;;;;;;41.00;23.53;;;;;;;;;;783045;179;633311;-62
2021/03/30 07:47:14;;;;;;;46.63;24.77;;;;;;;;;;779636;179;643550;-62
2021/03/30 07:49:39;;;;;;;41.40;23.20;;;;;;;;;;785481;179;623425;-62
2021/03/30 07:52:11;;;;;;;46.67;24.25;;;;;;;;;;779200;179;639317;-62
2021/03/30 07:54:37;;;;;;;37.27;24.77;;;;;;;;;;781904;179;667888;-62
2021/03/30 07:57:03;;;;;;;39.33;23.27;;;;;;;;;;780783;179;641070;-65
2021/03/30 07:59:35;;;;;;;33.37;25.23;;;;;;;;;;781107;179;612599;-62
2021/03/30 08:02:00;;;;;;;32.90;23.37;;;;;;;;;;780681;179;616642;-63
2021/03/30 08:04:26;;;;;;;30.83;24.63;;;;;;;;;;782727;179;626282;-62
2021/03/30 08:06:53;;;;;;;37.93;25.33;;;;;;;;;;784292;179;642008;-62
2021/03/30 08:09:19;;;;;;;53.50;29.10;;;;;;;;;;783955;179;633619;-62
2021/03/30 08:11:44;;;;;;;38.53;24.33;;;;;;;;;;778431;179;718481;-62
2021/03/30 08:14:39;;;;;;;34.67;22.60;;;;;;;;;;784742;179;628000;-62
2021/03/30 08:17:05;;;;;;;39.67;24.50;;;;;;;;;;780089;179;691978;-63
2021/03/30 08:19:31;;;;;;;37.70;25.42;;;;;;;;;;784107;179;633618;-62
2021/03/30 08:21:58;;;;;;;30.47;24.90;;;;;;;;;;778399;179;627324;-66
2021/03/30 08:24:27;;;;;;;37.03;25.27;;;;;;;;;;782068;179;638036;-64
2021/03/30 08:26:53;;;;;;;36.23;24.30;;;;;;;;;;780891;179;647983;-63
2021/03/30 08:29:19;;;;;;;29.37;22.60;;;;;;;;;;783422;179;623591;-63
2021/03/30 08:31:48;;;;;;;40.23;25.40;;;;;;;;;;781654;179;626216;-63
2021/03/30 08:34:28;;;;;;;35.77;25.13;;;;;;;;;;777798;179;683180;-63
2021/03/30 08:36:55;;;;;;;36.60;24.13;;;;;;;;;;781771;179;623115;-62
2021/03/30 08:39:35;;;;;;;44.97;25.63;;;;;;;;;;783694;179;626374;-62
2021/03/30 08:42:12;;;;;;;36.43;26.27;;;;;;;;;;784229;179;640091;-62
2021/03/30 08:44:43;;;;;;;38.13;23.40;;;;;;;;;;785894;179;641209;-64
2021/03/30 08:47:08;;;;;;;34.90;24.10;;;;;;;;;;780488;179;628055;-63
2021/03/30 08:49:36;;;;;;;34.80;22.70;;;;;;;;;;778839;179;623256;-63
2021/03/30 08:52:04;;;;;;;35.00;23.10;;;;;;;;;;785550;179;608617;-64
2021/03/30 08:54:30;;;;;;;35.70;24.10;;;;;;;;;;785342;178;706171;-63
2021/03/30 08:56:58;;;;;;;33.17;23.60;;;;;;;;;;783124;178;619609;-63
2021/03/30 08:59:23;;;;;;;30.60;22.93;;;;;;;;;;779341;179;652141;-64
2021/03/30 09:01:55;;;;;;;35.73;22.57;;;;;;;;;;787267;179;629576;-63
2021/03/30 09:04:21;;;;;;;37.43;24.20;;;;;;;;;;780530;179;649455;-63
2021/03/30 09:06:47;;;;;;;37.40;26.50;;;;;;;;;;782121;179;929727;-63
2021/03/30 09:09:19;;;;;;;41.40;23.23;;;;;;;;;;781110;179;627186;-63
2021/03/30 09:11:44;;;;;;;33.40;24.77;;;;;;;;;;789928;179;623071;-64
2021/03/30 09:14:10;;;;;;;30.70;24.27;;;;;;;;;;778756;179;626143;-63
2021/03/30 09:16:36;;;;;;;32.13;22.13;;;;;;;;;;779920;179;629577;-64
2021/03/30 09:19:08;;;;;;;28.50;22.03;;;;;;;;;;783221;179;647172;-64
2021/03/30 09:21:34;;;;;;;29.10;21.50;;;;;;;;;;782007;179;835927;-64
2021/03/30 09:24:01;;;;;;;28.67;21.80;;;;;;;;;;780263;179;618795;-63
2021/03/30 09:26:31;;;;;;;29.00;19.40;;;;;;;;;;778486;179;633978;-64
2021/03/30 09:28:51;;;;;;;24.33;18.80;;;;;;;;;;780735;179;636889;-63
2021/03/30 09:31:17;;;;;;;27.03;18.27;;;;;;;;;;777890;179;700516;-63
2021/03/30 09:33:43;;;;;;;31.27;18.10;;;;;;;;;;779268;179;854762;-63
2021/03/30 09:36:10;;;;;;;27.13;17.67;;;;;;;;;;783583;179;627846;-63
2021/03/30 09:38:41;;;;;;;26.70;18.37;;;;;;;;;;783562;179;621441;-63
2021/03/30 09:41:07;;;;;;;25.20;15.97;;;;;;;;;;779278;179;675982;-62
2021/03/30 09:43:33;;;;;;;26.30;18.37;;;;;;;;;;781331;179;634740;-63
2021/03/30 09:45:59;;;;;;;27.30;15.97;;;;;;;;;;781480;176;630070;-63
2021/03/30 09:48:25;;;;;;;28.23;16.97;;;;;;;;;;782350;179;616904;-63
2021/03/30 09:50:51;;;;;;;27.73;17.80;;;;;;;;;;778610;179;637240;-63
2021/03/30 09:53:16;;;;;;;26.10;16.63;;;;;;;;;;784753;179;637219;-63
2021/03/30 09:55:42;;;;;;;22.47;15.50;;;;;;;;;;777890;179;630999;-63
2021/03/30 09:58:09;;;;;;;25.40;17.37;;;;;;;;;;780135;179;630793;-63
2021/03/30 10:00:39;;;;;;;22.43;15.30;;;;;;;;;;785620;179;622054;-65
2021/03/30 10:03:05;;;;;;;27.97;16.20;;;;;;;;;;781163;179;758888;-63
2021/03/30 10:05:32;;;;;;;27.53;16.27;;;;;;;;;;783443;177;630037;-63
2021/03/30 10:07:58;;;;;;;26.93;15.20;;;;;;;;;;781425;179;626018;-63
2021/03/30 10:10:24;;;;;;;24.80;14.40;;;;;;;;;;785954;179;633531;-65
2021/03/30 10:12:51;;;;;;;22.37;12.60;;;;;;;;;;778067;179;871551;-63
2021/03/30 10:15:16;;;;;;;21.80;14.00;;;;;;;;;;781160;179;627871;-64
2021/03/30 10:17:42;;;;;;;28.07;14.33;;;;;;;;;;781785;179;624570;-63
2021/03/30 10:20:08;;;;;;;19.10;14.20;;;;;;;;;;781671;179;641616;-63
2021/03/30 10:22:35;;;;;;;23.10;13.93;;;;;;;;;;778236;179;848797;-64
2021/03/30 10:25:06;;;;;;;19.37;13.57;;;;;;;;;;785328;179;632234;-63
2021/03/30 10:27:34;;;;;;;19.57;12.97;;;;;;;;;;780581;179;633197;-64
2021/03/30 10:29:57;;;;;;;23.23;13.13;;;;;;;;;;780860;179;630903;-63
2021/03/30 10:32:23;;;;;;;25.07;13.70;;;;;;;;;;779302;179;633191;-65
2021/03/30 10:34:49;;;;;;;18.67;13.87;;;;;;;;;;785759;179;647976;-63
2021/03/30 10:37:15;;;;;;;16.12;13.23;;;;;;;;;;778754;179;627038;-66
2021/03/30 10:39:42;;;;;;;17.00;13.23;;;;;;;;;;781040;179;622734;-65
2021/03/30 10:42:07;;;;;;;24.03;16.10;;;;;;;;;;785535;179;621447;-63
2021/03/30 10:44:33;;;;;;;21.73;14.50;;;;;;;;;;782402;179;621991;-63
2021/03/30 10:46:59;;;;;;;23.97;14.43;;;;;;;;;;780605;179;629290;-63
2021/03/30 10:49:25;;;;;;;21.30;14.43;;;;;;;;;;779636;179;656563;-63
2021/03/30 10:51:51;;;;;;;22.43;13.73;;;;;;;;;;780567;179;636795;-63
2021/03/30 10:54:20;;;;;;;25.07;15.13;;;;;;;;;;779419;179;627001;-63
2021/03/30 10:56:43;;;;;;;26.47;13.90;;;;;;;;;;780991;179;629581;-64
2021/03/30 10:59:08;;;;;;;20.23;14.30;;;;;;;;;;783836;179;628746;-63
2021/03/30 11:01:34;;;;;;;30.43;15.90;;;;;;;;;;783059;179;628852;-64
2021/03/30 11:04:00;;;;;;;26.53;15.20;;;;;;;;;;780626;179;661411;-65
2021/03/30 11:06:26;;;;;;;19.10;14.40;;;;;;;;;;786071;179;639138;-64
2021/03/30 11:08:52;;;;;;;22.33;14.23;;;;;;;;;;777568;179;655440;-64
2021/03/30 11:11:17;;;;;;;26.17;14.33;;;;;;;;;;782863;179;630330;-64
2021/03/30 11:13:43;;;;;;;25.23;14.77;;;;;;;;;;782748;179;637176;-64
2021/03/30 11:16:10;;;;;;;21.40;14.60;;;;;;;;;;781351;179;646235;-64
2021/03/30 11:18:42;;;;;;;26.07;16.43;;;;;;;;;;784567;177;629879;-64
2021/03/30 11:21:08;;;;;;;21.07;15.00;;;;;;;;;;781529;179;647949;-63
2021/03/30 11:23:35;;;;;;;22.93;15.70;;;;;;;;;;792634;179;631323;-63
2021/03/30 11:26:00;;;;;;;20.65;14.93;;;;;;;;;;781896;179;637083;-65
2021/03/30 11:28:34;;;;;;;25.93;15.93;;;;;;;;;;784176;179;620089;-63
2021/03/30 11:30:59;;;;;;;22.90;14.93;;;;;;;;;;781448;179;638856;-64
2021/03/30 11:33:21;;;;;;;30.87;15.70;;;;;;;;;;781391;179;644759;-66
2021/03/30 11:35:57;;;;;;;21.23;14.73;;;;;;;;;;779160;179;638657;-63
2021/03/30 11:38:22;;;;;;;19.20;14.07;;;;;;;;;;781571;179;629894;-66
2021/03/30 11:40:48;;;;;;;22.20;14.77;;;;;;;;;;782347;179;643302;-64
2021/03/30 11:43:13;;;;;;;24.93;15.30;;;;;;;;;;781501;179;632442;-64
2021/03/30 11:45:39;;;;;;;21.60;14.83;;;;;;;;;;778451;179;639274;-63
2021/03/30 11:48:06;;;;;;;21.77;14.48;;;;;;;;;;782339;179;631516;-64
2021/03/30 11:50:31;;;;;;;27.43;14.73;;;;;;;;;;780751;176;642758;-64
2021/03/30 11:52:57;;;;;;;21.60;14.00;;;;;;;;;;782201;179;630400;-64
2021/03/30 11:55:23;;;;;;;20.30;14.17;;;;;;;;;;780036;179;654779;-64
2021/03/30 11:57:49;;;;;;;19.67;14.07;;;;;;;;;;784467;179;618566;-62
2021/03/30 12:00:20;;;;;;;19.10;13.43;;;;;;;;;;782231;179;620965;-64
2021/03/30 12:02:47;;;;;;;21.60;13.83;;;;;;;;;;781972;179;627567;-64
2021/03/30 12:05:12;;;;;;;25.83;14.97;;;;;;;;;;783554;179;619533;-64
2021/03/30 12:07:38;;;;;;;21.73;13.70;;;;;;;;;;778634;179;630163;-64
2021/03/30 12:10:05;;;;;;;29.37;15.80;;;;;;;;;;780677;179;629549;-63
2021/03/30 12:12:31;;;;;;;23.47;14.33;;;;;;;;;;785005;179;636624;-64
2021/03/30 12:14:56;;;;;;;22.63;13.63;;;;;;;;;;784906;179;645825;-64
2021/03/30 12:17:22;;;;;;;18.90;13.73;;;;;;;;;;779741;179;624326;-64
2021/03/30 12:19:50;;;;;;;20.63;14.17;;;;;;;;;;780559;179;669673;-64
2021/03/30 12:22:15;;;;;;;22.03;13.13;;;;;;;;;;782122;179;617662;-63
2021/03/30 12:24:41;;;;;;;18.98;14.30;;;;;;;;;;783031;179;623726;-63
2021/03/30 12:27:10;;;;;;;28.23;13.97;;;;;;;;;;781088;179;623155;-63
2021/03/30 12:29:34;;;;;;;20.33;13.73;;;;;;;;;;787383;177;618176;-63
2021/03/30 12:32:00;;;;;;;17.43;13.80;;;;;;;;;;782170;179;626417;-64
2021/03/30 12:34:26;;;;;;;25.90;13.90;;;;;;;;;;785590;179;617334;-64
2021/03/30 12:36:53;;;;;;;24.93;14.70;;;;;;;;;;779612;179;760125;-64
2021/03/30 12:39:18;;;;;;;20.83;13.93;;;;;;;;;;788235;176;634535;-63
2021/03/30 12:41:45;;;;;;;23.23;13.43;;;;;;;;;;780935;179;681170;-63
2021/03/30 12:44:11;;;;;;;19.93;13.43;;;;;;;;;;779239;179;627379;-64
2021/03/30 12:46:36;;;;;;;23.10;14.57;;;;;;;;;;785592;179;630515;-64
2021/03/30 12:49:02;;;;;;;23.37;14.50;;;;;;;;;;780987;179;640180;-66
2021/03/30 12:51:28;;;;;;;21.37;14.53;;;;;;;;;;781548;179;766145;-65
2021/03/30 12:53:57;;;;;;;23.57;15.57;;;;;;;;;;782331;179;629300;-64
2021/03/30 12:56:20;;;;;;;23.07;14.30;;;;;;;;;;781838;179;622018;-65
2021/03/30 12:58:46;;;;;;;22.83;13.50;;;;;;;;;;778453;179;627437;-64
2021/03/30 13:01:12;;;;;;;18.90;12.37;;;;;;;;;;782281;179;633719;-64
2021/03/30 13:03:37;;;;;;;20.10;13.30;;;;;;;;;;784697;176;646421;-64
2021/03/30 13:06:03;;;;;;;24.37;13.27;;;;;;;;;;781486;179;632863;-64
2021/03/30 13:08:29;;;;;;;23.10;14.63;;;;;;;;;;777525;179;644008;-62
2021/03/30 13:10:55;;;;;;;23.43;13.53;;;;;;;;;;785954;179;638207;-64
2021/03/30 13:13:21;;;;;;;20.13;14.00;;;;;;;;;;779345;179;707606;-63
2021/03/30 13:15:47;;;;;;;20.73;13.50;;;;;;;;;;776283;179;1666767;-63
2021/03/30 13:18:15;;;;;;;24.07;13.73;;;;;;;;;;785050;179;625783;-68
2021/03/30 13:20:41;;;;;;;24.50;13.80;;;;;;;;;;779573;179;822119;-63
2021/03/30 13:23:07;;;;;;;18.40;13.57;;;;;;;;;;780826;179;634416;-63
2021/03/30 13:25:33;;;;;;;18.57;13.63;;;;;;;;;;781611;179;645708;-64
2021/03/30 13:28:04;;;;;;;28.47;16.07;;;;;;;;;;780907;179;628874;-63
2021/03/30 13:30:28;;;;;;;20.13;13.77;;;;;;;;;;778090;179;632406;-63
2021/03/30 13:32:54;;;;;;;15.50;12.20;;;;;;;;;;780142;179;682431;-64
2021/03/30 13:35:19;;;;;;;18.40;13.50;;;;;;;;;;783830;179;620782;-63
2021/03/30 13:37:45;;;;;;;19.80;12.23;;;;;;;;;;781901;179;628927;-64
2021/03/30 13:40:11;;;;;;;21.67;12.33;;;;;;;;;;780499;177;660334;-64
2021/03/30 13:42:37;;;;;;;19.23;12.20;;;;;;;;;;788091;179;616739;-63
2021/03/30 13:45:03;;;;;;;18.83;13.37;;;;;;;;;;779674;179;627553;-64
2021/03/30 13:47:29;;;;;;;20.83;11.40;;;;;;;;;;782559;179;627832;-64
2021/03/30 13:49:55;;;;;;;22.60;13.47;;;;;;;;;;784604;179;621010;-62
2021/03/30 13:52:21;;;;;;;19.50;11.63;;;;;;;;;;782718;179;655764;-63
2021/03/30 13:54:48;;;;;;;24.37;11.70;;;;;;;;;;778269;179;627836;-65
2021/03/30 13:57:13;;;;;;;19.03;11.80;;;;;;;;;;781935;179;671127;-63
2021/03/30 13:59:39;;;;;;;18.87;12.30;;;;;;;;;;787553;179;628362;-62
2021/03/30 14:02:05;;;;;;;25.70;12.67;;;;;;;;;;776052;179;1617710;-63